Preview of NWS' New Version of Forecast
This preview is not operational and should not be used for support decisions.

Terminal Aerodrome Forecast (TAF)

Issued by National Weather Service (NWS)

                            
183 
FTUS42 KMFL 201324 AAA
TAFMIA
TAF AMD
KMIA 201324Z 2013/2118 10016KT P6SM FEW015 SCT025 BKN050
      TEMPO 2013/2015 6SM -SHRA SCT015 BKN025
     FM201500 12017G27KT P6SM FEW025 SCT050
     FM202100 11013G23KT P6SM FEW025 SCT050
     FM210000 10011KT P6SM FEW025 SCT050=